sensor_id;sensor_type;location;lat;lon;timestamp;temperature;humidity
11583;DHT22;34299;50.820;4.548;2023-10-13T00:01:20;17.50;99.90
11583;DHT22;34299;50.820;4.548;2023-10-13T00:03:47;17.50;99.90
11583;DHT22;34299;50.820;4.548;2023-10-13T00:06:14;17.40;99.90
11583;DHT22;34299;50.820;4.548;2023-10-13T00:08:41;17.30;99.90
11583;DHT22;34299;50.820;4.548;2023-10-13T00:11:13;17.40;99.90
11583;DHT22;34299;50.820;4.548;2023-10-13T00:13:41;17.40;99.90
11583;DHT22;34299;50.820;4.548;2023-10-13T00:16:16;17.40;99.90
11583;DHT22;34299;50.820;4.548;2023-10-13T00:18:47;17.40;99.90
11583;DHT22;34299;50.820;4.548;2023-10-13T00:21:14;17.40;99.90
11583;DHT22;34299;50.820;4.548;2023-10-13T00:23:45;17.40;99.90
11583;DHT22;34299;50.820;4.548;2023-10-13T00:26:20;17.50;99.90
11583;DHT22;34299;50.820;4.548;2023-10-13T00:28:52;17.40;99.90
11583;DHT22;34299;50.820;4.548;2023-10-13T00:31:35;17.50;99.90
11583;DHT22;34299;50.820;4.548;2023-10-13T00:34:04;17.50;99.90
11583;DHT22;34299;50.820;4.548;2023-10-13T00:36:38;17.40;99.90
11583;DHT22;34299;50.820;4.548;2023-10-13T00:39:14;17.40;99.90
11583;DHT22;34299;50.820;4.548;2023-10-13T00:41:43;17.40;99.90
11583;DHT22;34299;50.820;4.548;2023-10-13T00:44:18;17.40;99.90
11583;DHT22;34299;50.820;4.548;2023-10-13T00:46:50;17.40;99.90
11583;DHT22;34299;50.820;4.548;2023-10-13T00:49:21;17.40;99.90
11583;DHT22;34299;50.820;4.548;2023-10-13T00:51:49;17.40;99.90
11583;DHT22;34299;50.820;4.548;2023-10-13T00:54:15;17.40;99.90
11583;DHT22;34299;50.820;4.548;2023-10-13T00:56:46;17.40;99.90
11583;DHT22;34299;50.820;4.548;2023-10-13T00:59:15;17.40;99.90
11583;DHT22;34299;50.820;4.548;2023-10-13T01:01:43;17.40;99.90
11583;DHT22;34299;50.820;4.548;2023-10-13T01:04:10;17.40;99.90
11583;DHT22;34299;50.820;4.548;2023-10-13T01:06:39;17.30;99.90
11583;DHT22;34299;50.820;4.548;2023-10-13T01:09:05;17.40;99.90
11583;DHT22;34299;50.820;4.548;2023-10-13T01:11:43;17.40;99.90
11583;DHT22;34299;50.820;4.548;2023-10-13T01:14:11;17.40;99.90
11583;DHT22;34299;50.820;4.548;2023-10-13T01:16:40;17.40;99.90
11583;DHT22;34299;50.820;4.548;2023-10-13T01:19:09;17.40;99.90
11583;DHT22;34299;50.820;4.548;2023-10-13T01:21:37;17.40;99.90
11583;DHT22;34299;50.820;4.548;2023-10-13T01:24:08;17.40;99.90
11583;DHT22;34299;50.820;4.548;2023-10-13T01:26:34;17.40;99.90
11583;DHT22;34299;50.820;4.548;2023-10-13T01:29:05;17.40;99.90
11583;DHT22;34299;50.820;4.548;2023-10-13T01:31:37;17.40;99.90
11583;DHT22;34299;50.820;4.548;2023-10-13T01:34:12;17.40;99.90
11583;DHT22;34299;50.820;4.548;2023-10-13T01:36:41;17.40;99.90
11583;DHT22;34299;50.820;4.548;2023-10-13T01:39:11;17.30;99.90
11583;DHT22;34299;50.820;4.548;2023-10-13T01:41:42;17.30;99.90
11583;DHT22;34299;50.820;4.548;2023-10-13T01:44:09;17.40;99.90
11583;DHT22;34299;50.820;4.548;2023-10-13T01:46:38;17.40;99.90
11583;DHT22;34299;50.820;4.548;2023-10-13T01:49:04;17.40;99.90
11583;DHT22;34299;50.820;4.548;2023-10-13T01:51:33;17.40;99.90
11583;DHT22;34299;50.820;4.548;2023-10-13T01:53:59;17.40;99.90
11583;DHT22;34299;50.820;4.548;2023-10-13T01:56:30;17.40;99.90
11583;DHT22;34299;50.820;4.548;2023-10-13T01:58:56;17.30;99.90
11583;DHT22;34299;50.820;4.548;2023-10-13T02:01:23;17.20;99.90
11583;DHT22;34299;50.820;4.548;2023-10-13T02:03:52;17.40;99.90
11583;DHT22;34299;50.820;4.548;2023-10-13T02:06:29;17.40;99.90
11583;DHT22;34299;50.820;4.548;2023-10-13T02:08:59;17.40;99.90
11583;DHT22;34299;50.820;4.548;2023-10-13T02:11:37;17.40;99.90
11583;DHT22;34299;50.820;4.548;2023-10-13T02:14:03;17.30;99.90
11583;DHT22;34299;50.820;4.548;2023-10-13T02:16:30;17.40;99.90
11583;DHT22;34299;50.820;4.548;2023-10-13T02:18:56;17.40;99.90
11583;DHT22;34299;50.820;4.548;2023-10-13T02:21:30;17.40;99.90
11583;DHT22;34299;50.820;4.548;2023-10-13T02:23:57;17.40;99.90
11583;DHT22;34299;50.820;4.548;2023-10-13T02:26:26;17.30;99.90
11583;DHT22;34299;50.820;4.548;2023-10-13T02:28:58;17.40;99.90
11583;DHT22;34299;50.820;4.548;2023-10-13T02:31:27;17.40;99.90
11583;DHT22;34299;50.820;4.548;2023-10-13T02:33:53;17.40;99.90
11583;DHT22;34299;50.820;4.548;2023-10-13T02:36:21;17.50;99.90
11583;DHT22;34299;50.820;4.548;2023-10-13T02:38:48;17.50;99.90
11583;DHT22;34299;50.820;4.548;2023-10-13T02:41:18;17.50;99.90
11583;DHT22;34299;50.820;4.548;2023-10-13T02:43:51;17.50;99.90
11583;DHT22;34299;50.820;4.548;2023-10-13T02:46:20;17.50;99.90
11583;DHT22;34299;50.820;4.548;2023-10-13T02:48:47;17.50;99.90
11583;DHT22;34299;50.820;4.548;2023-10-13T02:51:19;17.60;99.90
11583;DHT22;34299;50.820;4.548;2023-10-13T02:53:48;17.60;99.90
11583;DHT22;34299;50.820;4.548;2023-10-13T02:56:15;17.50;99.90
11583;DHT22;34299;50.820;4.548;2023-10-13T02:58:47;17.60;99.90
11583;DHT22;34299;50.820;4.548;2023-10-13T03:01:20;17.60;99.90
11583;DHT22;34299;50.820;4.548;2023-10-13T03:03:49;17.60;99.90
11583;DHT22;34299;50.820;4.548;2023-10-13T03:06:20;17.60;99.90
11583;DHT22;34299;50.820;4.548;2023-10-13T03:08:49;17.50;99.90
11583;DHT22;34299;50.820;4.548;2023-10-13T03:11:16;17.60;99.90
11583;DHT22;34299;50.820;4.548;2023-10-13T03:13:47;17.60;99.90
11583;DHT22;34299;50.820;4.548;2023-10-13T03:16:17;17.60;99.90
11583;DHT22;34299;50.820;4.548;2023-10-13T03:18:46;17.60;99.90
11583;DHT22;34299;50.820;4.548;2023-10-13T03:21:20;17.60;99.90
11583;DHT22;34299;50.820;4.548;2023-10-13T03:23:55;17.60;99.90
11583;DHT22;34299;50.820;4.548;2023-10-13T03:26:30;17.60;99.90
11583;DHT22;34299;50.820;4.548;2023-10-13T03:29:00;17.60;99.90
11583;DHT22;34299;50.820;4.548;2023-10-13T03:31:29;17.60;99.90
11583;DHT22;34299;50.820;4.548;2023-10-13T03:34:04;17.60;99.90
11583;DHT22;34299;50.820;4.548;2023-10-13T03:36:35;17.60;99.90
11583;DHT22;34299;50.820;4.548;2023-10-13T03:39:16;17.70;99.90
11583;DHT22;34299;50.820;4.548;2023-10-13T03:41:43;17.60;99.90
11583;DHT22;34299;50.820;4.548;2023-10-13T03:44:11;17.60;99.90
11583;DHT22;34299;50.820;4.548;2023-10-13T03:46:43;17.60;99.90
11583;DHT22;34299;50.820;4.548;2023-10-13T03:49:15;17.70;99.90
11583;DHT22;34299;50.820;4.548;2023-10-13T03:51:47;17.60;99.90
11583;DHT22;34299;50.820;4.548;2023-10-13T03:54:15;17.60;99.90
11583;DHT22;34299;50.820;4.548;2023-10-13T03:56:43;17.60;99.90
11583;DHT22;34299;50.820;4.548;2023-10-13T03:59:11;17.70;99.90
11583;DHT22;34299;50.820;4.548;2023-10-13T04:01:44;17.70;99.90
11583;DHT22;34299;50.820;4.548;2023-10-13T04:04:14;17.80;99.90
11583;DHT22;34299;50.820;4.548;2023-10-13T04:06:55;17.70;99.90
11583;DHT22;34299;50.820;4.548;2023-10-13T04:09:39;17.70;99.90
11583;DHT22;34299;50.820;4.548;2023-10-13T04:12:40;17.70;99.90
11583;DHT22;34299;50.820;4.548;2023-10-13T04:15:25;17.60;99.90
11583;DHT22;34299;50.820;4.548;2023-10-13T04:18:03;17.80;99.90
11583;DHT22;34299;50.820;4.548;2023-10-13T04:20:41;17.70;99.90
11583;DHT22;34299;50.820;4.548;2023-10-13T04:23:12;17.80;99.90
11583;DHT22;34299;50.820;4.548;2023-10-13T04:25:45;17.80;99.90
11583;DHT22;34299;50.820;4.548;2023-10-13T04:28:29;17.80;99.90
11583;DHT22;34299;50.820;4.548;2023-10-13T04:31:16;17.70;99.90
11583;DHT22;34299;50.820;4.548;2023-10-13T04:34:11;17.80;99.90
11583;DHT22;34299;50.820;4.548;2023-10-13T04:36:46;17.90;99.90
11583;DHT22;34299;50.820;4.548;2023-10-13T04:39:21;17.80;99.90
11583;DHT22;34299;50.820;4.548;2023-10-13T04:41:55;17.80;99.90
11583;DHT22;34299;50.820;4.548;2023-10-13T04:44:37;17.80;99.90
11583;DHT22;34299;50.820;4.548;2023-10-13T04:47:18;17.90;99.90
11583;DHT22;34299;50.820;4.548;2023-10-13T04:49:47;17.90;99.90
11583;DHT22;34299;50.820;4.548;2023-10-13T04:52:19;17.90;99.90
11583;DHT22;34299;50.820;4.548;2023-10-13T04:55:05;17.80;99.90
11583;DHT22;34299;50.820;4.548;2023-10-13T04:57:52;17.80;99.90
11583;DHT22;34299;50.820;4.548;2023-10-13T05:00:35;17.70;99.90
11583;DHT22;34299;50.820;4.548;2023-10-13T05:03:19;17.70;99.90
11583;DHT22;34299;50.820;4.548;2023-10-13T05:06:06;17.70;99.90
11583;DHT22;34299;50.820;4.548;2023-10-13T05:09:01;17.60;99.90
11583;DHT22;34299;50.820;4.548;2023-10-13T05:12:00;17.70;99.90
11583;DHT22;34299;50.820;4.548;2023-10-13T05:14:45;17.60;99.90
11583;DHT22;34299;50.820;4.548;2023-10-13T05:17:29;17.60;99.90
11583;DHT22;34299;50.820;4.548;2023-10-13T05:20:13;17.60;99.90
11583;DHT22;34299;50.820;4.548;2023-10-13T05:22:58;17.60;99.90
11583;DHT22;34299;50.820;4.548;2023-10-13T05:25:43;17.50;99.90
11583;DHT22;34299;50.820;4.548;2023-10-13T05:28:28;17.60;99.90
11583;DHT22;34299;50.820;4.548;2023-10-13T05:31:12;17.60;99.90
11583;DHT22;34299;50.820;4.548;2023-10-13T05:33:56;17.50;99.90
11583;DHT22;34299;50.820;4.548;2023-10-13T05:36:41;17.40;99.90
11583;DHT22;34299;50.820;4.548;2023-10-13T05:39:25;17.50;99.90
11583;DHT22;34299;50.820;4.548;2023-10-13T05:42:11;17.50;99.90
11583;DHT22;34299;50.820;4.548;2023-10-13T05:44:56;17.40;99.90
11583;DHT22;34299;50.820;4.548;2023-10-13T05:47:42;17.40;99.90
11583;DHT22;34299;50.820;4.548;2023-10-13T05:50:26;17.40;99.90
11583;DHT22;34299;50.820;4.548;2023-10-13T05:53:15;17.40;99.90
11583;DHT22;34299;50.820;4.548;2023-10-13T05:56:01;17.40;99.90
11583;DHT22;34299;50.820;4.548;2023-10-13T05:58:47;17.50;99.90
11583;DHT22;34299;50.820;4.548;2023-10-13T06:01:31;17.40;99.90
11583;DHT22;34299;50.820;4.548;2023-10-13T06:04:15;17.40;99.90
11583;DHT22;34299;50.820;4.548;2023-10-13T06:06:59;17.40;99.90
11583;DHT22;34299;50.820;4.548;2023-10-13T06:09:44;17.40;99.90
11583;DHT22;34299;50.820;4.548;2023-10-13T06:12:28;17.50;99.90
11583;DHT22;34299;50.820;4.548;2023-10-13T06:15:14;17.50;99.90
11583;DHT22;34299;50.820;4.548;2023-10-13T06:17:58;17.60;99.90
11583;DHT22;34299;50.820;4.548;2023-10-13T06:20:43;17.60;99.90
11583;DHT22;34299;50.820;4.548;2023-10-13T06:23:27;17.60;99.90
11583;DHT22;34299;50.820;4.548;2023-10-13T06:26:11;17.60;99.90
11583;DHT22;34299;50.820;4.548;2023-10-13T06:28:56;17.70;99.90
11583;DHT22;34299;50.820;4.548;2023-10-13T06:31:25;17.70;99.90
11583;DHT22;34299;50.820;4.548;2023-10-13T06:33:52;17.80;99.90
11583;DHT22;34299;50.820;4.548;2023-10-13T06:36:21;17.90;99.90
11583;DHT22;34299;50.820;4.548;2023-10-13T06:38:48;17.90;99.90
11583;DHT22;34299;50.820;4.548;2023-10-13T06:41:41;17.90;99.90
11583;DHT22;34299;50.820;4.548;2023-10-13T06:44:09;18.00;99.90
11583;DHT22;34299;50.820;4.548;2023-10-13T06:46:42;18.00;99.90
11583;DHT22;34299;50.820;4.548;2023-10-13T06:49:09;18.00;99.90
11583;DHT22;34299;50.820;4.548;2023-10-13T06:51:38;18.10;99.90
11583;DHT22;34299;50.820;4.548;2023-10-13T06:54:06;18.10;99.90
11583;DHT22;34299;50.820;4.548;2023-10-13T06:56:45;18.10;99.90
11583;DHT22;34299;50.820;4.548;2023-10-13T06:59:12;18.10;99.90
11583;DHT22;34299;50.820;4.548;2023-10-13T07:01:39;18.20;99.90
11583;DHT22;34299;50.820;4.548;2023-10-13T07:04:09;18.20;99.90
11583;DHT22;34299;50.820;4.548;2023-10-13T07:06:40;18.30;99.90
11583;DHT22;34299;50.820;4.548;2023-10-13T07:09:14;18.30;99.90
11583;DHT22;34299;50.820;4.548;2023-10-13T07:12:03;18.30;99.90
11583;DHT22;34299;50.820;4.548;2023-10-13T07:14:32;18.30;99.90
11583;DHT22;34299;50.820;4.548;2023-10-13T07:17:01;18.20;99.90
11583;DHT22;34299;50.820;4.548;2023-10-13T07:19:32;18.30;99.90
11583;DHT22;34299;50.820;4.548;2023-10-13T07:22:01;18.30;99.90
11583;DHT22;34299;50.820;4.548;2023-10-13T07:24:44;18.60;99.90
11583;DHT22;34299;50.820;4.548;2023-10-13T07:27:14;18.50;99.90
11583;DHT22;34299;50.820;4.548;2023-10-13T07:29:48;18.60;99.90
11583;DHT22;34299;50.820;4.548;2023-10-13T07:32:22;18.70;99.90
11583;DHT22;34299;50.820;4.548;2023-10-13T07:34:54;18.70;99.90
11583;DHT22;34299;50.820;4.548;2023-10-13T07:37:23;18.80;99.90
11583;DHT22;34299;50.820;4.548;2023-10-13T07:39:54;18.80;99.90
11583;DHT22;34299;50.820;4.548;2023-10-13T07:42:24;18.90;99.90
11583;DHT22;34299;50.820;4.548;2023-10-13T07:44:57;19.00;99.90
11583;DHT22;34299;50.820;4.548;2023-10-13T07:47:24;19.10;99.90
11583;DHT22;34299;50.820;4.548;2023-10-13T07:49:55;19.20;99.90
11583;DHT22;34299;50.820;4.548;2023-10-13T07:52:22;19.20;99.90
11583;DHT22;34299;50.820;4.548;2023-10-13T07:55:01;19.20;99.90
11583;DHT22;34299;50.820;4.548;2023-10-13T07:57:36;19.30;99.90
11583;DHT22;34299;50.820;4.548;2023-10-13T08:00:19;19.50;99.90
11583;DHT22;34299;50.820;4.548;2023-10-13T08:03:04;19.40;99.90
11583;DHT22;34299;50.820;4.548;2023-10-13T08:05:58;19.50;99.90
11583;DHT22;34299;50.820;4.548;2023-10-13T08:08:30;19.60;99.90
11583;DHT22;34299;50.820;4.548;2023-10-13T08:11:04;19.70;99.90
11583;DHT22;34299;50.820;4.548;2023-10-13T08:13:37;19.60;99.90
11583;DHT22;34299;50.820;4.548;2023-10-13T08:16:08;19.60;99.90
11583;DHT22;34299;50.820;4.548;2023-10-13T08:18:37;19.60;99.90
11583;DHT22;34299;50.820;4.548;2023-10-13T08:21:08;19.60;99.90
11583;DHT22;34299;50.820;4.548;2023-10-13T08:23:42;19.60;99.90
11583;DHT22;34299;50.820;4.548;2023-10-13T08:26:27;19.50;99.90
11583;DHT22;34299;50.820;4.548;2023-10-13T08:29:12;19.60;99.90
11583;DHT22;34299;50.820;4.548;2023-10-13T08:31:56;19.60;99.90
11583;DHT22;34299;50.820;4.548;2023-10-13T08:34:39;19.60;99.90
11583;DHT22;34299;50.820;4.548;2023-10-13T08:37:27;19.60;99.90
11583;DHT22;34299;50.820;4.548;2023-10-13T08:39:59;19.60;99.90
11583;DHT22;34299;50.820;4.548;2023-10-13T08:42:40;19.60;99.90
11583;DHT22;34299;50.820;4.548;2023-10-13T08:45:18;19.60;99.90
11583;DHT22;34299;50.820;4.548;2023-10-13T08:48:09;19.70;99.90
11583;DHT22;34299;50.820;4.548;2023-10-13T08:50:43;19.70;99.90
11583;DHT22;34299;50.820;4.548;2023-10-13T08:53:20;19.70;99.90
11583;DHT22;34299;50.820;4.548;2023-10-13T08:55:58;19.80;99.90
11583;DHT22;34299;50.820;4.548;2023-10-13T08:58:32;19.90;99.90
11583;DHT22;34299;50.820;4.548;2023-10-13T09:01:13;19.90;99.90
11583;DHT22;34299;50.820;4.548;2023-10-13T09:04:00;19.80;99.90
11583;DHT22;34299;50.820;4.548;2023-10-13T09:06:48;19.90;99.90
11583;DHT22;34299;50.820;4.548;2023-10-13T09:09:28;19.80;99.90
11583;DHT22;34299;50.820;4.548;2023-10-13T09:12:00;19.80;99.90
11583;DHT22;34299;50.820;4.548;2023-10-13T09:14:36;20.00;99.90
11583;DHT22;34299;50.820;4.548;2023-10-13T09:17:05;19.90;99.90
11583;DHT22;34299;50.820;4.548;2023-10-13T09:19:47;20.00;99.90
11583;DHT22;34299;50.820;4.548;2023-10-13T09:22:20;20.10;99.90
11583;DHT22;34299;50.820;4.548;2023-10-13T09:24:54;20.10;99.90
11583;DHT22;34299;50.820;4.548;2023-10-13T09:27:24;20.10;99.90
11583;DHT22;34299;50.820;4.548;2023-10-13T09:30:00;20.10;99.90
11583;DHT22;34299;50.820;4.548;2023-10-13T09:32:33;20.10;99.90
11583;DHT22;34299;50.820;4.548;2023-10-13T09:35:16;20.20;99.90
11583;DHT22;34299;50.820;4.548;2023-10-13T09:37:43;20.30;99.90
11583;DHT22;34299;50.820;4.548;2023-10-13T09:40:15;20.10;99.90
11583;DHT22;34299;50.820;4.548;2023-10-13T09:43:00;20.20;99.90
11583;DHT22;34299;50.820;4.548;2023-10-13T09:45:33;20.10;99.90
11583;DHT22;34299;50.820;4.548;2023-10-13T09:48:03;20.30;99.90
11583;DHT22;34299;50.820;4.548;2023-10-13T09:50:36;20.20;99.90
11583;DHT22;34299;50.820;4.548;2023-10-13T09:53:04;20.30;99.90
11583;DHT22;34299;50.820;4.548;2023-10-13T09:55:40;20.60;99.90
11583;DHT22;34299;50.820;4.548;2023-10-13T09:58:11;20.40;99.90
11583;DHT22;34299;50.820;4.548;2023-10-13T10:00:43;20.50;99.90
11583;DHT22;34299;50.820;4.548;2023-10-13T10:03:12;20.50;99.90
11583;DHT22;34299;50.820;4.548;2023-10-13T10:05:56;20.60;99.90
11583;DHT22;34299;50.820;4.548;2023-10-13T10:08:29;21.00;99.90
11583;DHT22;34299;50.820;4.548;2023-10-13T10:11:07;21.20;99.90
11583;DHT22;34299;50.820;4.548;2023-10-13T10:13:49;21.40;99.90
11583;DHT22;34299;50.820;4.548;2023-10-13T10:16:23;21.30;99.90
11583;DHT22;34299;50.820;4.548;2023-10-13T10:18:59;21.10;99.90
11583;DHT22;34299;50.820;4.548;2023-10-13T10:21:33;21.10;99.90
11583;DHT22;34299;50.820;4.548;2023-10-13T10:24:01;21.30;99.90
11583;DHT22;34299;50.820;4.548;2023-10-13T10:26:50;21.50;99.90
11583;DHT22;34299;50.820;4.548;2023-10-13T10:29:17;21.40;99.90
11583;DHT22;34299;50.820;4.548;2023-10-13T10:31:44;21.60;99.90
11583;DHT22;34299;50.820;4.548;2023-10-13T10:34:13;21.70;99.90
11583;DHT22;34299;50.820;4.548;2023-10-13T10:36:40;21.80;99.90
11583;DHT22;34299;50.820;4.548;2023-10-13T10:39:09;21.70;99.90
11583;DHT22;34299;50.820;4.548;2023-10-13T10:41:37;21.90;99.90
11583;DHT22;34299;50.820;4.548;2023-10-13T10:44:12;21.80;99.90
11583;DHT22;34299;50.820;4.548;2023-10-13T10:46:42;21.80;99.90
11583;DHT22;34299;50.820;4.548;2023-10-13T10:49:18;21.70;99.90
11583;DHT22;34299;50.820;4.548;2023-10-13T10:51:57;21.80;99.90
11583;DHT22;34299;50.820;4.548;2023-10-13T10:54:26;21.90;99.90
11583;DHT22;34299;50.820;4.548;2023-10-13T10:56:57;22.00;99.90
11583;DHT22;34299;50.820;4.548;2023-10-13T10:59:38;21.80;99.90
11583;DHT22;34299;50.820;4.548;2023-10-13T11:02:06;22.30;99.90
11583;DHT22;34299;50.820;4.548;2023-10-13T11:04:35;22.90;99.90
11583;DHT22;34299;50.820;4.548;2023-10-13T11:07:06;23.10;99.90
11583;DHT22;34299;50.820;4.548;2023-10-13T11:09:35;22.90;99.90
11583;DHT22;34299;50.820;4.548;2023-10-13T11:12:12;22.90;99.90
11583;DHT22;34299;50.820;4.548;2023-10-13T11:15:00;22.80;99.90
11583;DHT22;34299;50.820;4.548;2023-10-13T11:17:27;22.80;99.90
11583;DHT22;34299;50.820;4.548;2023-10-13T11:20:11;22.70;99.90
11583;DHT22;34299;50.820;4.548;2023-10-13T11:22:45;22.70;99.90
11583;DHT22;34299;50.820;4.548;2023-10-13T11:25:21;22.50;99.90
11583;DHT22;34299;50.820;4.548;2023-10-13T11:27:49;22.50;99.90
11583;DHT22;34299;50.820;4.548;2023-10-13T11:30:33;22.50;99.90
11583;DHT22;34299;50.820;4.548;2023-10-13T11:33:08;22.60;99.90
11583;DHT22;34299;50.820;4.548;2023-10-13T11:35:37;23.40;99.90
11583;DHT22;34299;50.820;4.548;2023-10-13T11:38:23;23.10;99.90
11583;DHT22;34299;50.820;4.548;2023-10-13T11:40:54;23.10;99.90
11583;DHT22;34299;50.820;4.548;2023-10-13T11:43:41;22.70;99.90
11583;DHT22;34299;50.820;4.548;2023-10-13T11:46:27;22.60;99.90
11583;DHT22;34299;50.820;4.548;2023-10-13T11:49:14;22.60;99.90
11583;DHT22;34299;50.820;4.548;2023-10-13T11:51:46;22.40;99.90
11583;DHT22;34299;50.820;4.548;2023-10-13T11:54:13;22.50;99.90
11583;DHT22;34299;50.820;4.548;2023-10-13T11:56:41;22.50;99.90
11583;DHT22;34299;50.820;4.548;2023-10-13T11:59:08;22.70;99.90
11583;DHT22;34299;50.820;4.548;2023-10-13T12:01:44;22.90;99.90
11583;DHT22;34299;50.820;4.548;2023-10-13T12:04:28;22.70;99.90
11583;DHT22;34299;50.820;4.548;2023-10-13T12:07:07;22.40;99.90
11583;DHT22;34299;50.820;4.548;2023-10-13T12:09:46;22.40;99.90
11583;DHT22;34299;50.820;4.548;2023-10-13T12:12:29;22.70;99.90
11583;DHT22;34299;50.820;4.548;2023-10-13T12:14:57;22.60;99.90
11583;DHT22;34299;50.820;4.548;2023-10-13T12:17:36;22.50;99.90
11583;DHT22;34299;50.820;4.548;2023-10-13T12:20:06;22.50;99.90
11583;DHT22;34299;50.820;4.548;2023-10-13T12:22:35;22.50;99.90
11583;DHT22;34299;50.820;4.548;2023-10-13T12:25:05;22.50;99.90
11583;DHT22;34299;50.820;4.548;2023-10-13T12:27:45;22.60;99.90
11583;DHT22;34299;50.820;4.548;2023-10-13T12:30:14;22.30;99.90
11583;DHT22;34299;50.820;4.548;2023-10-13T12:32:50;22.30;99.90
11583;DHT22;34299;50.820;4.548;2023-10-13T12:35:25;22.30;99.90
11583;DHT22;34299;50.820;4.548;2023-10-13T12:37:55;22.30;99.90
11583;DHT22;34299;50.820;4.548;2023-10-13T12:40:31;22.20;99.90
11583;DHT22;34299;50.820;4.548;2023-10-13T12:43:15;22.20;99.90
11583;DHT22;34299;50.820;4.548;2023-10-13T12:46:00;22.10;99.90
11583;DHT22;34299;50.820;4.548;2023-10-13T12:48:45;22.10;99.90
11583;DHT22;34299;50.820;4.548;2023-10-13T12:51:41;22.00;99.90
11583;DHT22;34299;50.820;4.548;2023-10-13T12:54:16;22.00;99.90
11583;DHT22;34299;50.820;4.548;2023-10-13T12:56:49;22.10;99.90
11583;DHT22;34299;50.820;4.548;2023-10-13T12:59:22;22.00;99.90
11583;DHT22;34299;50.820;4.548;2023-10-13T13:01:52;22.00;99.90
11583;DHT22;34299;50.820;4.548;2023-10-13T13:04:21;22.20;99.90
11583;DHT22;34299;50.820;4.548;2023-10-13T13:06:48;22.00;99.90
11583;DHT22;34299;50.820;4.548;2023-10-13T13:09:16;22.00;99.90
11583;DHT22;34299;50.820;4.548;2023-10-13T13:11:51;21.90;99.90
11583;DHT22;34299;50.820;4.548;2023-10-13T13:14:22;21.90;99.90
11583;DHT22;34299;50.820;4.548;2023-10-13T13:16:54;22.00;99.90
11583;DHT22;34299;50.820;4.548;2023-10-13T13:19:31;22.00;99.90
11583;DHT22;34299;50.820;4.548;2023-10-13T13:22:01;21.90;99.90
11583;DHT22;34299;50.820;4.548;2023-10-13T13:24:29;21.80;99.90
11583;DHT22;34299;50.820;4.548;2023-10-13T13:26:56;21.90;99.90
11583;DHT22;34299;50.820;4.548;2023-10-13T13:29:28;21.80;99.90
11583;DHT22;34299;50.820;4.548;2023-10-13T13:31:56;21.70;99.90
11583;DHT22;34299;50.820;4.548;2023-10-13T13:34:25;21.90;99.90
11583;DHT22;34299;50.820;4.548;2023-10-13T13:36:54;21.90;99.90
11583;DHT22;34299;50.820;4.548;2023-10-13T13:39:21;21.70;99.90
11583;DHT22;34299;50.820;4.548;2023-10-13T13:41:55;21.60;99.90
11583;DHT22;34299;50.820;4.548;2023-10-13T13:44:23;21.60;99.90
11583;DHT22;34299;50.820;4.548;2023-10-13T13:46:55;21.50;99.90
11583;DHT22;34299;50.820;4.548;2023-10-13T13:49:23;21.60;99.90
11583;DHT22;34299;50.820;4.548;2023-10-13T13:51:57;21.70;99.90
11583;DHT22;34299;50.820;4.548;2023-10-13T13:54:30;21.80;99.90
11583;DHT22;34299;50.820;4.548;2023-10-13T13:56:57;21.70;99.90
11583;DHT22;34299;50.820;4.548;2023-10-13T13:59:24;21.90;99.90
11583;DHT22;34299;50.820;4.548;2023-10-13T14:01:51;21.80;99.90
11583;DHT22;34299;50.820;4.548;2023-10-13T14:04:18;21.90;99.90
11583;DHT22;34299;50.820;4.548;2023-10-13T14:06:45;21.90;99.90
11583;DHT22;34299;50.820;4.548;2023-10-13T14:09:14;22.00;99.90
11583;DHT22;34299;50.820;4.548;2023-10-13T14:11:41;21.80;99.90
11583;DHT22;34299;50.820;4.548;2023-10-13T14:14:26;21.80;99.90
11583;DHT22;34299;50.820;4.548;2023-10-13T14:16:59;22.00;99.90
11583;DHT22;34299;50.820;4.548;2023-10-13T14:19:34;22.00;99.90
11583;DHT22;34299;50.820;4.548;2023-10-13T14:22:06;22.00;99.90
11583;DHT22;34299;50.820;4.548;2023-10-13T14:24:35;22.00;99.90
11583;DHT22;34299;50.820;4.548;2023-10-13T14:27:09;22.00;99.90
11583;DHT22;34299;50.820;4.548;2023-10-13T14:29:41;22.10;99.90
11583;DHT22;34299;50.820;4.548;2023-10-13T14:32:09;22.00;99.90
11583;DHT22;34299;50.820;4.548;2023-10-13T14:34:39;22.00;99.90
11583;DHT22;34299;50.820;4.548;2023-10-13T14:37:06;22.00;99.90
11583;DHT22;34299;50.820;4.548;2023-10-13T14:39:34;22.00;99.90
11583;DHT22;34299;50.820;4.548;2023-10-13T14:42:03;21.90;99.90
11583;DHT22;34299;50.820;4.548;2023-10-13T14:44:32;22.10;99.90
11583;DHT22;34299;50.820;4.548;2023-10-13T14:46:59;21.90;99.90
11583;DHT22;34299;50.820;4.548;2023-10-13T14:49:26;21.80;99.90
11583;DHT22;34299;50.820;4.548;2023-10-13T14:51:53;21.70;99.90
11583;DHT22;34299;50.820;4.548;2023-10-13T14:54:21;21.60;99.90
11583;DHT22;34299;50.820;4.548;2023-10-13T14:57:00;21.60;99.90
11583;DHT22;34299;50.820;4.548;2023-10-13T14:59:27;21.60;99.90
11583;DHT22;34299;50.820;4.548;2023-10-13T15:01:59;21.50;99.90
11583;DHT22;34299;50.820;4.548;2023-10-13T15:04:28;21.50;99.90
11583;DHT22;34299;50.820;4.548;2023-10-13T15:06:58;21.40;99.90
11583;DHT22;34299;50.820;4.548;2023-10-13T15:09:28;21.10;99.90
11583;DHT22;34299;50.820;4.548;2023-10-13T15:11:55;21.10;99.90
11583;DHT22;34299;50.820;4.548;2023-10-13T15:14:23;21.10;99.90
11583;DHT22;34299;50.820;4.548;2023-10-13T15:16:50;21.10;99.90
11583;DHT22;34299;50.820;4.548;2023-10-13T15:19:18;21.20;99.90
11583;DHT22;34299;50.820;4.548;2023-10-13T15:21:45;21.10;99.90
11583;DHT22;34299;50.820;4.548;2023-10-13T15:24:16;20.90;99.90
11583;DHT22;34299;50.820;4.548;2023-10-13T15:26:43;21.00;99.90
11583;DHT22;34299;50.820;4.548;2023-10-13T15:29:14;20.90;99.90
11583;DHT22;34299;50.820;4.548;2023-10-13T15:31:44;20.80;99.90
11583;DHT22;34299;50.820;4.548;2023-10-13T15:34:30;20.80;99.90
11583;DHT22;34299;50.820;4.548;2023-10-13T15:36:59;20.80;99.90
11583;DHT22;34299;50.820;4.548;2023-10-13T15:39:26;20.50;99.90
11583;DHT22;34299;50.820;4.548;2023-10-13T15:41:54;20.60;99.90
11583;DHT22;34299;50.820;4.548;2023-10-13T15:44:24;20.80;99.90
11583;DHT22;34299;50.820;4.548;2023-10-13T15:46:55;20.50;99.90
11583;DHT22;34299;50.820;4.548;2023-10-13T15:49:22;20.20;99.90
11583;DHT22;34299;50.820;4.548;2023-10-13T15:51:49;20.40;99.90
11583;DHT22;34299;50.820;4.548;2023-10-13T15:54:17;20.30;99.90
11583;DHT22;34299;50.820;4.548;2023-10-13T15:56:44;20.10;99.90
11583;DHT22;34299;50.820;4.548;2023-10-13T15:59:12;20.00;99.90
11583;DHT22;34299;50.820;4.548;2023-10-13T16:01:39;19.80;99.90
11583;DHT22;34299;50.820;4.548;2023-10-13T16:04:08;19.80;99.90
11583;DHT22;34299;50.820;4.548;2023-10-13T16:06:38;19.80;99.90
11583;DHT22;34299;50.820;4.548;2023-10-13T16:09:06;19.60;99.90
11583;DHT22;34299;50.820;4.548;2023-10-13T16:11:40;19.90;99.90